Main page
METAR-TAF:

METAR-TAF

Airports :

Reus Airport

Reus, Spain

latitude: 41-09N, longitude: 001-10E, elevation: 71 m

Current weather observation

The report was made 40 minutes ago, at 10:30 UTC
Wind 2 kt from variable directions
Temperature 14°C
Humidity 72%
Pressure 1016 hPa
Visibility 10 km or more
no clouds below 1500 m and no cumulonimbus

METAR: LERS 061030Z VRB02KT CAVOK 14/09 Q1016

Time: 12:10 (11:10 UTC)

Forecast

The report was made 3 hours and 10 minutes ago, at 08:00 UTC
Forecast valid from 06 at 09 UTC to 07 at 09 UTC
Wind 4 kt from variable directions
Visibility 10 km or more
Few clouds at a height of 2000 ft
Temporary
from 06 at 12 UTC to 06 at 17 UTC
Wind 7 kt from the South
Temporary
from 06 at 18 UTC to 06 at 24 UTC
Broken clouds at a height of 1200 ft

TAF: LERS 060800Z 0609/0709 VRB04KT 9999 FEW020 TX16/0612Z TN06/0706Z TEMPO 0612/0617 19007KT TEMPO 0618/0624 BKN012

Weather observations and forecasts of more than 4000 airports (METAR and TAF reports).

The available stations are represented by yellow and red dots on the map.

Hover mouse over dot to see the name of the station.

Then click to see weather observations and forecasts.

To change the map : click on the green buttons with a black cross to zoom in, on the green button with a dash to zoom out, or on the green arrows for adjacent maps.


METAR-TAF: